createdAt,value
2018-08-17T00:00:58.768Z,5.37
2018-08-17T00:03:27.984Z,5.62
2018-08-17T00:05:57.227Z,5.60
2018-08-17T00:08:26.425Z,5.28
2018-08-17T00:10:55.775Z,6.45
2018-08-17T00:13:25.093Z,5.70
2018-08-17T00:15:54.376Z,5.55
2018-08-17T00:18:23.668Z,5.75
2018-08-17T00:20:52.912Z,6.70
2018-08-17T00:23:22.086Z,5.15
2018-08-17T00:25:51.245Z,5.55
2018-08-17T00:28:20.586Z,5.67
2018-08-17T00:30:50.068Z,5.72
2018-08-17T00:33:19.468Z,6.05
2018-08-17T00:35:49.089Z,6.37
2018-08-17T00:38:18.498Z,5.75
2018-08-17T00:40:47.885Z,5.72
2018-08-17T00:43:17.308Z,5.47
2018-08-17T00:45:46.432Z,5.47
2018-08-17T00:48:15.831Z,4.85
2018-08-17T00:50:45.143Z,7.03
2018-08-17T00:53:14.440Z,5.53
2018-08-17T00:55:43.791Z,5.67
2018-08-17T00:58:12.949Z,5.00
2018-08-17T01:00:42.314Z,7.20
2018-08-17T01:03:11.585Z,6.03
2018-08-17T01:05:40.996Z,5.20
2018-08-17T01:08:10.155Z,5.30
2018-08-17T01:10:39.344Z,5.05
2018-08-17T01:13:13.968Z,5.90
2018-08-17T01:15:43.241Z,6.47
2018-08-17T01:18:13.080Z,5.85
2018-08-17T01:20:42.208Z,8.63
2018-08-17T01:23:11.340Z,5.90
2018-08-17T01:25:40.760Z,6.08
2018-08-17T01:28:10.533Z,6.62
2018-08-17T01:30:39.730Z,6.85
2018-08-17T01:33:09.056Z,7.60
2018-08-17T01:35:38.089Z,8.70
2018-08-17T01:38:07.533Z,10.38
2018-08-17T01:40:36.813Z,11.38
2018-08-17T01:43:06.468Z,9.13
2018-08-17T01:45:35.699Z,10.03
2018-08-17T01:48:04.891Z,7.53
2018-08-17T01:50:33.965Z,7.00
2018-08-17T01:53:03.098Z,5.90
2018-08-17T01:55:32.163Z,6.10
2018-08-17T01:58:01.424Z,5.97
2018-08-17T02:00:30.624Z,5.50
2018-08-17T02:02:59.909Z,5.67
2018-08-17T02:05:29.248Z,5.57
2018-08-17T02:07:58.477Z,5.08
2018-08-17T02:10:27.676Z,4.87
2018-08-17T02:12:56.964Z,4.90
2018-08-17T02:15:26.300Z,4.80
2018-08-17T02:17:55.467Z,4.65
2018-08-17T02:20:24.724Z,6.90
2018-08-17T02:22:54.096Z,4.57
2018-08-17T02:25:23.665Z,4.65
2018-08-17T02:27:53.078Z,4.73
2018-08-17T02:30:22.488Z,7.15
2018-08-17T02:32:51.685Z,6.05
2018-08-17T02:35:21.036Z,5.67
2018-08-17T02:37:50.312Z,7.97
2018-08-17T02:40:19.766Z,5.20
2018-08-17T02:42:49.250Z,4.40
2018-08-17T02:45:18.589Z,3.77
2018-08-17T02:47:47.769Z,2.93
2018-08-17T02:50:17.048Z,4.20
2018-08-17T02:52:46.261Z,3.58
2018-08-17T02:55:15.372Z,3.77
2018-08-17T02:57:44.505Z,3.63
2018-08-17T03:00:13.672Z,3.75
2018-08-17T03:02:43.029Z,4.42
2018-08-17T03:05:12.649Z,6.37
2018-08-17T03:07:42.060Z,8.98
2018-08-17T03:10:11.249Z,6.55
2018-08-17T03:12:40.484Z,5.37
2018-08-17T03:15:09.764Z,7.12
2018-08-17T03:17:39.016Z,7.28
2018-08-17T03:20:08.429Z,5.30
2018-08-17T03:22:37.741Z,3.87
2018-08-17T03:25:07.117Z,6.37
2018-08-17T03:27:36.464Z,4.57
2018-08-17T03:30:06.256Z,4.97
2018-08-17T03:32:35.600Z,5.33
2018-08-17T03:35:05.202Z,6.42
2018-08-17T03:37:34.540Z,5.78
2018-08-17T03:40:03.768Z,4.37
2018-08-17T03:42:33.031Z,3.75
2018-08-17T03:45:02.353Z,3.00
2018-08-17T03:47:32.001Z,4.42
2018-08-17T03:50:01.412Z,3.02
2018-08-17T03:52:30.737Z,5.87
2018-08-17T03:55:00.130Z,3.83
2018-08-17T03:57:29.304Z,5.45
2018-08-17T03:59:58.436Z,4.67
2018-08-17T04:02:28.106Z,5.67
2018-08-17T04:04:57.333Z,5.28
2018-08-17T04:07:26.793Z,5.30
2018-08-17T04:09:55.997Z,3.77
2018-08-17T04:12:25.173Z,4.00
2018-08-17T04:14:54.529Z,4.60
2018-08-17T04:17:23.607Z,6.58
2018-08-17T04:19:52.847Z,3.90
2018-08-17T04:22:22.008Z,5.28
2018-08-17T04:24:51.159Z,3.95
2018-08-17T04:27:20.368Z,4.03
2018-08-17T04:29:49.484Z,3.33
2018-08-17T04:32:18.682Z,4.00
2018-08-17T04:34:47.892Z,3.22
2018-08-17T04:37:17.268Z,3.83
2018-08-17T04:39:46.524Z,3.90
2018-08-17T04:42:15.940Z,5.10
2018-08-17T04:44:45.140Z,3.33
2018-08-17T04:47:14.325Z,2.90
2018-08-17T04:49:43.572Z,3.03
2018-08-17T04:52:12.736Z,4.65
2018-08-17T04:54:42.092Z,4.55
2018-08-17T04:57:11.499Z,3.72
2018-08-17T04:59:40.880Z,4.58
2018-08-17T05:02:10.225Z,5.35
2018-08-17T05:04:39.409Z,3.70
2018-08-17T05:07:09.319Z,5.53
2018-08-17T05:09:38.645Z,4.90
2018-08-17T05:12:08.296Z,4.72
2018-08-17T05:14:37.463Z,3.77
2018-08-17T05:17:06.840Z,3.58
2018-08-17T05:19:36.108Z,4.27
2018-08-17T05:22:05.664Z,4.20
2018-08-17T05:24:34.928Z,4.73
2018-08-17T05:27:04.307Z,3.85
2018-08-17T05:29:33.578Z,4.03
2018-08-17T05:32:02.788Z,3.60
2018-08-17T05:34:31.989Z,3.52
2018-08-17T05:37:01.390Z,5.50
2018-08-17T05:39:30.714Z,3.67
2018-08-17T05:42:00.333Z,4.85
2018-08-17T05:44:29.568Z,4.50
2018-08-17T05:46:58.784Z,3.62
2018-08-17T05:49:29.113Z,3.62
2018-08-17T05:51:58.384Z,4.47
2018-08-17T05:54:27.731Z,5.37
2018-08-17T05:56:56.924Z,4.92
2018-08-17T05:59:26.164Z,5.10
2018-08-17T06:01:55.441Z,7.33
2018-08-17T06:04:24.684Z,6.10
2018-08-17T06:06:53.869Z,7.30
2018-08-17T06:09:24.032Z,6.42
2018-08-17T06:11:53.234Z,6.08
2018-08-17T06:14:22.640Z,4.72
2018-08-17T06:16:51.921Z,3.58
2018-08-17T06:19:21.271Z,3.80
2018-08-17T06:21:50.476Z,6.10
2018-08-17T06:24:19.832Z,3.90
2018-08-17T06:26:48.508Z,5.20
2018-08-17T06:29:17.815Z,5.42
2018-08-17T06:31:47.199Z,5.62
2018-08-17T06:34:16.644Z,5.85
2018-08-17T06:36:45.819Z,5.35
2018-08-17T06:39:14.953Z,6.50
2018-08-17T06:41:44.236Z,5.58
2018-08-17T06:44:13.473Z,8.48
2018-08-17T06:46:42.555Z,4.23
2018-08-17T06:49:11.855Z,4.87
2018-08-17T06:51:41.298Z,4.03
2018-08-17T06:54:10.588Z,3.87
2018-08-17T06:56:39.741Z,4.10
2018-08-17T06:59:08.911Z,3.62
2018-08-17T07:01:38.264Z,3.80
2018-08-17T07:04:07.747Z,3.62
2018-08-17T07:06:37.220Z,3.83
2018-08-17T07:09:08.664Z,3.87
2018-08-17T07:11:38.180Z,3.80
2018-08-17T07:14:08.227Z,3.37
2018-08-17T07:16:37.635Z,4.05
2018-08-17T07:19:06.799Z,3.80
2018-08-17T07:21:36.460Z,4.08
2018-08-17T07:24:05.828Z,4.83
2018-08-17T07:26:35.182Z,3.50
2018-08-17T07:29:04.463Z,3.70
2018-08-17T07:31:33.808Z,3.52
2018-08-17T07:34:02.872Z,4.13
2018-08-17T07:36:32.111Z,3.30
2018-08-17T07:39:01.612Z,3.45
2018-08-17T07:41:31.252Z,3.22
2018-08-17T07:44:00.574Z,4.22
2018-08-17T07:46:29.842Z,3.27
2018-08-17T07:48:59.409Z,3.50
2018-08-17T07:51:28.886Z,3.77
2018-08-17T07:53:58.120Z,3.55
2018-08-17T07:56:27.328Z,4.90
2018-08-17T07:58:56.533Z,4.03
2018-08-17T08:01:25.723Z,3.37
2018-08-17T08:03:55.170Z,3.47
2018-08-17T08:06:24.560Z,3.55
2018-08-17T08:08:54.405Z,4.37
2018-08-17T08:11:23.616Z,3.65
2018-08-17T08:13:52.832Z,3.22
2018-08-17T08:16:21.996Z,3.50
2018-08-17T08:18:51.253Z,4.00
2018-08-17T08:21:20.516Z,3.10
2018-08-17T08:23:49.564Z,3.62
2018-08-17T08:26:18.740Z,3.35
2018-08-17T08:28:48.289Z,3.67
2018-08-17T08:31:17.470Z,3.47
2018-08-17T08:33:46.733Z,3.80
2018-08-17T08:36:15.889Z,3.57
2018-08-17T08:38:45.140Z,3.30
2018-08-17T08:41:14.317Z,3.08
2018-08-17T08:43:43.520Z,3.10
2018-08-17T08:46:12.872Z,3.70
2018-08-17T08:48:42.155Z,4.53
2018-08-17T08:51:11.705Z,4.27
2018-08-17T08:53:40.977Z,4.60
2018-08-17T08:56:10.216Z,5.00
2018-08-17T08:58:39.494Z,5.70
2018-08-17T09:01:08.784Z,5.60
2018-08-17T09:03:37.913Z,5.30
2018-08-17T09:06:07.241Z,5.22
2018-08-17T09:08:36.328Z,4.53
2018-08-17T09:11:05.689Z,4.97
2018-08-17T09:13:35.053Z,3.90
2018-08-17T09:16:04.721Z,3.70
2018-08-17T09:18:33.999Z,3.47
2018-08-17T09:21:03.147Z,3.47
2018-08-17T09:23:32.264Z,3.12
2018-08-17T09:26:01.670Z,3.47
2018-08-17T09:28:31.078Z,4.30
2018-08-17T09:31:00.498Z,3.75
2018-08-17T09:33:29.671Z,4.43
2018-08-17T09:35:58.912Z,4.20
2018-08-17T09:38:28.120Z,4.62
2018-08-17T09:40:57.340Z,4.55
2018-08-17T09:43:26.609Z,6.65
2018-08-17T09:45:55.929Z,5.22
2018-08-17T09:48:25.176Z,4.83
2018-08-17T09:50:54.981Z,5.85
2018-08-17T09:53:24.221Z,6.58
2018-08-17T09:55:53.516Z,6.22
2018-08-17T09:58:22.716Z,5.00
2018-08-17T10:00:56.948Z,5.00
2018-08-17T10:03:31.324Z,7.22
2018-08-17T10:06:05.591Z,6.40
2018-08-17T10:08:40.121Z,7.87
2018-08-17T10:11:09.456Z,6.85
2018-08-17T10:13:38.687Z,7.60
2018-08-17T10:16:08.253Z,5.95
2018-08-17T10:18:41.692Z,7.62
2018-08-17T10:21:11.178Z,5.47
2018-08-17T10:23:40.304Z,5.90
2018-08-17T10:26:09.596Z,4.20
2018-08-17T10:28:38.873Z,4.53
2018-08-17T10:31:08.254Z,4.15
2018-08-17T10:33:37.584Z,4.30
2018-08-17T10:36:06.984Z,4.80
2018-08-17T10:38:36.388Z,4.83
2018-08-17T10:41:05.781Z,4.75
2018-08-17T10:43:35.022Z,7.53
2018-08-17T10:46:04.196Z,6.53
2018-08-17T10:48:33.543Z,3.85
2018-08-17T10:51:02.745Z,3.83
2018-08-17T10:53:35.524Z,4.10
2018-08-17T10:56:05.016Z,3.90
2018-08-17T10:58:34.774Z,3.83
2018-08-17T11:01:04.161Z,3.83
2018-08-17T11:03:33.301Z,4.53
2018-08-17T11:06:02.455Z,3.10
2018-08-17T11:08:31.628Z,3.00
2018-08-17T11:11:01.057Z,5.87
2018-08-17T11:13:30.401Z,4.05
2018-08-17T11:15:59.668Z,4.25
2018-08-17T11:18:28.969Z,3.17
2018-08-17T11:20:58.212Z,4.25
2018-08-17T11:23:27.480Z,3.95
2018-08-17T11:25:56.716Z,3.97
2018-08-17T11:28:25.997Z,4.40
2018-08-17T11:30:55.232Z,4.67
2018-08-17T11:33:27.308Z,3.03
2018-08-17T11:35:56.872Z,3.85
2018-08-17T11:38:26.320Z,2.90
2018-08-17T11:40:55.658Z,3.87
2018-08-17T11:43:24.956Z,4.28
2018-08-17T11:45:54.066Z,3.30
2018-08-17T11:48:28.615Z,2.60
2018-08-17T11:50:58.108Z,4.67
2018-08-17T11:53:27.210Z,4.15
2018-08-17T11:55:56.489Z,3.62
2018-08-17T11:58:25.516Z,3.40
2018-08-17T12:00:54.553Z,4.50
2018-08-17T12:03:23.830Z,4.40
2018-08-17T12:05:53.195Z,7.97
2018-08-17T12:08:22.551Z,4.60
2018-08-17T12:10:58.052Z,5.12
2018-08-17T12:13:27.341Z,4.53
2018-08-17T12:15:57.665Z,5.03
2018-08-17T12:18:27.198Z,4.67
2018-08-17T12:20:56.587Z,4.43
2018-08-17T12:23:26.192Z,5.60
2018-08-17T12:25:58.108Z,8.07
2018-08-17T12:28:28.572Z,4.40
2018-08-17T12:30:58.490Z,7.22
2018-08-17T12:33:27.580Z,4.60
2018-08-17T12:35:56.916Z,4.40
2018-08-17T12:38:26.103Z,6.00
2018-08-17T12:40:56.341Z,6.95
2018-08-17T12:43:36.400Z,3.25
2018-08-17T12:46:05.648Z,4.30
2018-08-17T12:48:35.000Z,4.97
2018-08-17T12:51:07.512Z,3.70
2018-08-17T12:53:37.545Z,4.45
2018-08-17T12:56:07.018Z,4.12
2018-08-17T12:58:36.204Z,5.60
2018-08-17T13:01:05.621Z,4.40
2018-08-17T13:03:34.911Z,3.35
2018-08-17T13:06:04.090Z,4.60
2018-08-17T13:08:33.259Z,3.65
2018-08-17T13:11:02.435Z,4.40
2018-08-17T13:13:31.888Z,4.45
2018-08-17T13:16:05.766Z,4.47
2018-08-17T13:18:36.260Z,4.62
2018-08-17T13:21:05.513Z,3.10
2018-08-17T13:23:35.068Z,3.55
2018-08-17T13:26:04.341Z,3.58
2018-08-17T13:28:33.681Z,5.10
2018-08-17T13:31:03.308Z,5.08
2018-08-17T13:33:32.624Z,3.67
2018-08-17T13:36:01.901Z,4.87
2018-08-17T13:38:31.132Z,4.50
2018-08-17T13:41:00.513Z,4.92
2018-08-17T13:43:30.072Z,4.83
2018-08-17T13:45:59.556Z,4.80
2018-08-17T13:48:28.914Z,3.40
2018-08-17T13:50:58.081Z,3.40
2018-08-17T13:53:27.545Z,3.03
2018-08-17T13:55:56.936Z,2.52
2018-08-17T13:58:26.260Z,2.77
2018-08-17T14:00:55.638Z,3.45
2018-08-17T14:03:25.012Z,4.20
2018-08-17T14:05:54.271Z,2.40
2018-08-17T14:08:23.799Z,3.80
2018-08-17T14:10:53.097Z,3.02
2018-08-17T14:13:22.448Z,4.45
2018-08-17T14:15:51.756Z,4.00
2018-08-17T14:18:21.276Z,2.98
2018-08-17T14:20:50.568Z,5.37
2018-08-17T14:23:20.099Z,3.33
2018-08-17T14:25:49.498Z,5.17
2018-08-17T14:28:18.752Z,2.98
2018-08-17T14:30:48.161Z,3.40
2018-08-17T14:33:17.454Z,2.47
2018-08-17T14:35:46.691Z,2.93
2018-08-17T14:38:17.349Z,4.05
2018-08-17T14:40:46.620Z,4.10
2018-08-17T14:43:15.792Z,2.83
2018-08-17T14:45:45.237Z,3.60
2018-08-17T14:48:14.637Z,2.62
2018-08-17T14:50:43.997Z,3.47
2018-08-17T14:53:13.247Z,4.80
2018-08-17T14:55:42.600Z,4.92
2018-08-17T14:58:12.008Z,3.00
2018-08-17T15:00:41.306Z,3.92
2018-08-17T15:03:10.744Z,3.12
2018-08-17T15:05:39.960Z,2.75
2018-08-17T15:08:09.316Z,2.23
2018-08-17T15:10:38.579Z,2.80
2018-08-17T15:13:08.044Z,1.50
2018-08-17T15:15:37.431Z,3.50
2018-08-17T15:18:06.912Z,2.35
2018-08-17T15:20:36.224Z,2.65
2018-08-17T15:23:05.457Z,3.87
2018-08-17T15:25:34.860Z,5.05
2018-08-17T15:28:04.272Z,2.80
2018-08-17T15:30:33.696Z,2.30
2018-08-17T15:33:02.853Z,2.85
2018-08-17T15:35:32.130Z,2.33
2018-08-17T15:38:01.381Z,1.80
2018-08-17T15:40:30.839Z,3.00
2018-08-17T15:43:04.143Z,3.30
2018-08-17T15:45:33.381Z,3.52
2018-08-17T15:48:02.533Z,2.92
2018-08-17T15:50:31.761Z,4.05
2018-08-17T15:53:00.994Z,3.55
2018-08-17T15:55:30.540Z,2.00
2018-08-17T15:57:59.852Z,2.80
2018-08-17T16:00:29.369Z,2.17
2018-08-17T16:02:58.724Z,2.73
2018-08-17T16:05:28.024Z,2.42
2018-08-17T16:07:57.380Z,3.50
2018-08-17T16:10:26.803Z,4.10
2018-08-17T16:12:55.896Z,2.42
2018-08-17T16:15:25.069Z,4.55
2018-08-17T16:17:54.435Z,2.35
2018-08-17T16:20:23.802Z,5.25
2018-08-17T16:22:53.171Z,2.87
2018-08-17T16:25:22.439Z,2.35
2018-08-17T16:27:51.747Z,3.35
2018-08-17T16:30:21.188Z,3.08
2018-08-17T16:32:50.405Z,3.12
2018-08-17T16:35:19.800Z,2.90
2018-08-17T16:37:49.292Z,1.92
2018-08-17T16:40:18.807Z,3.95
2018-08-17T16:42:51.229Z,2.40
2018-08-17T16:45:20.677Z,3.07
2018-08-17T16:47:49.961Z,2.58
2018-08-17T16:50:19.293Z,1.92
2018-08-17T16:52:48.568Z,4.22
2018-08-17T16:55:18.023Z,1.98
2018-08-17T16:57:47.412Z,1.95
2018-08-17T17:00:16.982Z,2.83
2018-08-17T17:02:46.119Z,2.40
2018-08-17T17:05:15.368Z,2.42
2018-08-17T17:07:44.632Z,3.25
2018-08-17T17:10:13.981Z,2.22
2018-08-17T17:12:43.141Z,2.02
2018-08-17T17:15:17.392Z,2.58
2018-08-17T17:17:58.278Z,4.30
2018-08-17T17:20:32.416Z,2.20
2018-08-17T17:23:01.603Z,2.70
2018-08-17T17:25:30.757Z,1.92
2018-08-17T17:28:00.025Z,2.75
2018-08-17T17:30:38.258Z,3.22
2018-08-17T17:33:07.830Z,3.10
2018-08-17T17:35:37.628Z,2.67
2018-08-17T17:38:06.991Z,2.77
2018-08-17T17:40:36.160Z,3.37
2018-08-17T17:43:05.488Z,3.60
2018-08-17T17:45:34.852Z,1.87
2018-08-17T17:48:04.266Z,3.43
2018-08-17T17:50:33.720Z,3.65
2018-08-17T17:53:03.769Z,1.60
2018-08-17T17:55:40.204Z,3.35
2018-08-17T17:58:09.485Z,2.73
2018-08-17T18:00:38.690Z,2.80
2018-08-17T18:03:08.355Z,3.70
2018-08-17T18:05:37.606Z,4.33
2018-08-17T18:08:11.952Z,2.90
2018-08-17T18:10:41.283Z,2.65
2018-08-17T18:13:10.525Z,2.92
2018-08-17T18:15:39.897Z,2.37
2018-08-17T18:18:09.564Z,2.85
2018-08-17T18:20:39.076Z,3.30
2018-08-17T18:23:08.285Z,3.67
2018-08-17T18:25:37.580Z,3.75
2018-08-17T18:28:06.910Z,1.97
2018-08-17T18:30:36.283Z,2.87
2018-08-17T18:33:05.764Z,2.47
2018-08-17T18:35:34.945Z,2.50
2018-08-17T18:38:04.465Z,2.92
2018-08-17T18:40:33.755Z,2.80
2018-08-17T18:43:03.357Z,4.03
2018-08-17T18:45:38.848Z,2.80
2018-08-17T18:48:08.263Z,4.90
2018-08-17T18:50:37.479Z,3.87
2018-08-17T18:53:07.826Z,3.70
2018-08-17T18:55:36.986Z,3.72
2018-08-17T18:58:06.402Z,3.63
2018-08-17T19:00:35.880Z,5.35
2018-08-17T19:03:05.316Z,4.37
2018-08-17T19:05:34.814Z,2.92
2018-08-17T19:08:04.316Z,2.72
2018-08-17T19:10:33.737Z,3.87
2018-08-17T19:13:02.949Z,4.45
2018-08-17T19:15:40.038Z,4.05
2018-08-17T19:18:09.548Z,3.45
2018-08-17T19:20:38.840Z,3.85
2018-08-17T19:23:08.306Z,4.67
2018-08-17T19:25:41.270Z,3.40
2018-08-17T19:28:10.472Z,4.80
2018-08-17T19:30:39.794Z,3.60
2018-08-17T19:33:11.322Z,3.90
2018-08-17T19:35:47.957Z,3.97
2018-08-17T19:38:17.262Z,4.08
2018-08-17T19:40:46.629Z,4.62
2018-08-17T19:43:15.751Z,4.65
2018-08-17T19:45:45.237Z,2.87
2018-08-17T19:48:14.500Z,4.20
2018-08-17T19:50:43.708Z,4.28
2018-08-17T19:53:13.041Z,5.55
2018-08-17T19:55:42.640Z,4.90
2018-08-17T19:58:11.947Z,3.25
2018-08-17T20:00:41.184Z,4.58
2018-08-17T20:03:10.560Z,5.42
2018-08-17T20:05:39.709Z,4.75
2018-08-17T20:08:09.219Z,6.20
2018-08-17T20:10:38.511Z,4.87
2018-08-17T20:13:07.812Z,2.60
2018-08-17T20:15:37.053Z,3.22
2018-08-17T20:18:06.260Z,6.67
2018-08-17T20:20:35.576Z,6.05
2018-08-17T20:23:04.961Z,6.22
2018-08-17T20:25:34.475Z,6.62
2018-08-17T20:28:03.794Z,5.10
2018-08-17T20:30:33.252Z,4.17
2018-08-17T20:33:02.705Z,4.92
2018-08-17T20:35:32.104Z,4.55
2018-08-17T20:38:01.248Z,5.00
2018-08-17T20:40:30.485Z,4.30
2018-08-17T20:42:59.714Z,5.62
2018-08-17T20:45:28.797Z,4.35
2018-08-17T20:47:58.219Z,3.67
2018-08-17T20:50:27.547Z,3.83
2018-08-17T20:52:58.580Z,4.28
2018-08-17T20:55:27.838Z,4.20
2018-08-17T20:57:57.848Z,2.87
2018-08-17T21:00:28.381Z,3.80
2018-08-17T21:02:57.752Z,6.12
2018-08-17T21:05:27.056Z,5.53
2018-08-17T21:07:56.332Z,2.62
2018-08-17T21:10:25.605Z,4.22
2018-08-17T21:12:54.879Z,5.03
2018-08-17T21:15:24.432Z,3.83
2018-08-17T21:17:53.841Z,5.00
2018-08-17T21:20:23.156Z,4.03
2018-08-17T21:22:52.629Z,5.33
2018-08-17T21:25:21.795Z,5.63
2018-08-17T21:27:50.917Z,4.17
2018-08-17T21:30:19.967Z,3.62
2018-08-17T21:32:49.108Z,3.90
2018-08-17T21:35:18.480Z,3.37
2018-08-17T21:37:47.624Z,3.60
2018-08-17T21:40:24.805Z,3.70
2018-08-17T21:42:54.057Z,3.90
2018-08-17T21:45:23.227Z,3.90
2018-08-17T21:47:52.724Z,6.00
2018-08-17T21:50:22.144Z,5.37
2018-08-17T21:52:51.389Z,3.10
2018-08-17T21:55:20.600Z,3.67
2018-08-17T21:57:50.012Z,5.15
2018-08-17T22:00:25.961Z,3.65
2018-08-17T22:02:55.102Z,3.95
2018-08-17T22:05:28.760Z,3.75
2018-08-17T22:07:58.098Z,3.13
2018-08-17T22:10:27.436Z,3.72
2018-08-17T22:12:56.612Z,4.85
2018-08-17T22:15:28.384Z,4.00
2018-08-17T22:17:57.729Z,3.37
2018-08-17T22:20:27.140Z,3.42
2018-08-17T22:22:56.728Z,9.23
2018-08-17T22:25:26.081Z,2.60
2018-08-17T22:27:55.595Z,4.37
2018-08-17T22:30:26.093Z,3.87
2018-08-17T22:32:55.528Z,5.60
2018-08-17T22:35:25.107Z,3.67
2018-08-17T22:37:54.346Z,2.75
2018-08-17T22:40:23.911Z,4.45
2018-08-17T22:42:53.100Z,7.92
2018-08-17T22:45:22.412Z,3.22
2018-08-17T22:47:51.583Z,5.53
2018-08-17T22:50:20.828Z,5.33
2018-08-17T22:52:49.900Z,2.30
2018-08-17T22:55:19.274Z,3.92
2018-08-17T22:57:48.324Z,3.43
2018-08-17T23:00:24.144Z,3.27
2018-08-17T23:02:55.544Z,3.90
2018-08-17T23:05:26.419Z,3.58
2018-08-17T23:07:55.604Z,2.95
2018-08-17T23:10:25.952Z,2.30
2018-08-17T23:12:55.849Z,2.75
2018-08-17T23:15:25.024Z,3.23
2018-08-17T23:17:55.444Z,4.33
2018-08-17T23:20:30.076Z,3.33
2018-08-17T23:23:00.464Z,2.55
2018-08-17T23:25:29.904Z,2.50
2018-08-17T23:27:59.289Z,2.58
2018-08-17T23:30:28.433Z,2.33
2018-08-17T23:33:04.216Z,3.92
2018-08-17T23:35:33.661Z,4.92
2018-08-17T23:38:03.056Z,3.40
2018-08-17T23:40:32.274Z,3.33
2018-08-17T23:43:01.488Z,3.05
2018-08-17T23:45:30.661Z,4.17
2018-08-17T23:47:59.909Z,3.85
2018-08-17T23:50:29.297Z,2.80
2018-08-17T23:52:58.633Z,3.37
2018-08-17T23:55:27.918Z,5.37
2018-08-17T23:57:57.176Z,3.17
